Thursday, September 18, 2014
23:53 UTC
  |  Log In   |  Register Free
Airport Search:

Southwest Georgia Regional Airport
(KABY)

FAA data valid effective September 18, 2014 - November 13, 2014 (unless otherwise noted).

 
 
 
 
 
 
 
 
 
 
 
 
 
 

Current Aviation Weather for Southwest Georgia Regional Airport (KABY)

The most recent METAR observation for KABY was updated at: 2307
METAR Summary (Translated METAR)
KABY
182253Z 00000KT 10SM CLR 28/19 A2994 RMK AO2 SLP137 T02780189
KMGR
182255Z AUTO 03004KT 10SM CLR 28/18 A2993 RMK AO2
(33.7 nm SE from KABY)
KACJ
182235Z AUTO 11004KT 10SM CLR 26/20 A2995 RMK AO2
(34.5 nm NE from KABY)
TAF Summary (Translated TAF)
KABY
181720Z 1818/1918 02005KT P6SM BKN250 FM190300 00000KT P6SM SCT250 FM191400 09007KT P6SM BKN250
  Airport Weather Conditions for KABY

 Current Weather at ABY
82° F
Fair
North winds at 0.0 mph
ABY NOAA Radar

Pressure: 29.94 in
Humidity: 58%
Wind: Calm
Dew Point: 66.0°F
Visibility: 10.00 mi


Airport Weather Forecast for KABY

Translated METAR and TAF for KABY
Translated METAR for KABY (2347 UTC 18 September 2014)
found at http://aviationweather.gov/adds/metars/
 
METAR text: KABY 182253Z 00000KT 10SM CLR 28/19 A2994 RMK AO2 SLP137 T02780189
Conditions at: KABY (ALBANY , GA, US) observed 2253 UTC 18 September 2014
Temperature: 27.8°C (82°F)
Dewpoint: 18.9°C (66°F) [RH = 58%]
Pressure (altimeter): 29.94 inches Hg (1014.0 mb)
[Sea-level pressure: 1013.7 mb]
Winds: calm
Visibility: 10 or more miles (16+ km)
Ceiling: at least 12,000 feet AGL
Clouds: sky clear below 12,000 feet AGL
Weather: no significant weather observed at this time
Translated TAF for KABY
Forecast for: KABY (ALBANY , GA, US)
TAF Text: KABY 182320Z 1900/1924 00000KT P6SM SCT250
Forecast period: 0000 to 1400 UTC 19 September 2014
Forecast type: FROM: standard forecast or significant change
Winds: calm
Visibility: 6 or more miles (10+ km)
Clouds: scattered clouds at 25000 feet AGL
Weather: no significant weather forecast for this period
TAF Text: FM191400 09007KT P6SM SCT050 BKN250
Forecast period: 1400 UTC 19 September 2014 to 0000 UTC 20 September 2014
Forecast type: FROM: standard forecast or significant change
Winds: from the E (90 degrees) at 8 MPH (7 knots; 3.6 m/s)
Visibility: 6 or more miles (10+ km)
Ceiling: 25000 feet AGL
Clouds: scattered clouds at 5000 feet AGL
broken clouds at 25000 feet AGL
Weather: no significant weather forecast for this period

Find All Airport Services Find A Hotel Find A Rental Car Find A Golf Course Find A Restaurant $100 Hamburger



FBO's on the Field
FBO Company Facility Photos Services Transportation Aviation Fuel Prices: Prices include tax
Catering Weather Repair Courtesy Rental Type 100LL JetA JetA+ MOGAS 8087
 
Eagles of America, Inc. - ABY

Currently rated 5 by 1 person
FS:Epic
Last Updated: Sep-05
Login to update fuel prices
SS:
Contact Eagles of America, Inc. - ABYMore FBO Information
 
Add another FBO Facility Photos Catering Weather Repair Courtesy Rental Type 100LL JetA JetA+ MOGAS 8087
Services Transportation Aviation Fuel Prices: Prices include tax


model-print
model-print
model-print
model-print